sensor_id;sensor_type;location;lat;lon;timestamp;pressure;altitude;pressure_sealevel;temperature;humidity
55517;BME280;41724;51.176;-0.708;2023-04-29T00:01:21;101321.30;;;16.90;51.91
55517;BME280;41724;51.176;-0.708;2023-04-29T00:03:48;101319.48;;;16.59;52.93
55517;BME280;41724;51.176;-0.708;2023-04-29T00:06:15;101320.25;;;16.42;52.94
55517;BME280;41724;51.176;-0.708;2023-04-29T00:08:42;101323.47;;;16.14;53.86
55517;BME280;41724;51.176;-0.708;2023-04-29T00:11:10;101322.59;;;16.23;52.75
55517;BME280;41724;51.176;-0.708;2023-04-29T00:13:36;101320.84;;;16.36;52.56
55517;BME280;41724;51.176;-0.708;2023-04-29T00:16:04;101325.15;;;16.59;52.14
55517;BME280;41724;51.176;-0.708;2023-04-29T00:18:31;101328.45;;;16.62;51.37
55517;BME280;41724;51.176;-0.708;2023-04-29T00:20:59;101332.31;;;16.78;50.99
55517;BME280;41724;51.176;-0.708;2023-04-29T00:23:25;101331.84;;;16.61;50.95
55517;BME280;41724;51.176;-0.708;2023-04-29T00:25:52;101331.14;;;16.36;51.37
55517;BME280;41724;51.176;-0.708;2023-04-29T00:28:19;101330.44;;;16.42;51.27
55517;BME280;41724;51.176;-0.708;2023-04-29T00:30:47;101330.42;;;16.59;51.54
55517;BME280;41724;51.176;-0.708;2023-04-29T00:33:14;101330.45;;;16.72;51.22
55517;BME280;41724;51.176;-0.708;2023-04-29T00:35:40;101330.14;;;16.62;51.38
55517;BME280;41724;51.176;-0.708;2023-04-29T00:38:08;101330.36;;;16.19;51.38
55517;BME280;41724;51.176;-0.708;2023-04-29T00:40:35;101331.43;;;16.32;51.45
55517;BME280;41724;51.176;-0.708;2023-04-29T00:43:01;101332.66;;;16.14;51.37
55517;BME280;41724;51.176;-0.708;2023-04-29T00:45:28;101333.69;;;16.12;51.61
55517;BME280;41724;51.176;-0.708;2023-04-29T00:47:55;101342.00;;;15.94;51.82
55517;BME280;41724;51.176;-0.708;2023-04-29T00:50:23;101343.87;;;15.87;51.87
55517;BME280;41724;51.176;-0.708;2023-04-29T00:52:50;101346.22;;;15.83;51.92
55517;BME280;41724;51.176;-0.708;2023-04-29T00:55:17;101344.70;;;15.68;51.94
55517;BME280;41724;51.176;-0.708;2023-04-29T00:57:45;101344.99;;;15.91;52.40
55517;BME280;41724;51.176;-0.708;2023-04-29T01:00:12;101346.78;;;15.66;52.83
55517;BME280;41724;51.176;-0.708;2023-04-29T01:02:41;101340.63;;;15.25;52.92
55517;BME280;41724;51.176;-0.708;2023-04-29T01:05:09;101344.13;;;15.25;53.05
55517;BME280;41724;51.176;-0.708;2023-04-29T01:07:44;101346.89;;;15.16;53.13
55517;BME280;41724;51.176;-0.708;2023-04-29T01:10:19;101349.69;;;15.34;53.33
55517;BME280;41724;51.176;-0.708;2023-04-29T01:12:56;101350.04;;;15.39;53.70
55517;BME280;41724;51.176;-0.708;2023-04-29T01:15:32;101352.29;;;15.43;53.35
55517;BME280;41724;51.176;-0.708;2023-04-29T01:18:06;101357.26;;;15.07;53.34
55517;BME280;41724;51.176;-0.708;2023-04-29T01:20:37;101354.92;;;15.12;53.73
55517;BME280;41724;51.176;-0.708;2023-04-29T01:23:05;101357.91;;;14.93;53.51
55517;BME280;41724;51.176;-0.708;2023-04-29T01:25:32;101353.80;;;14.87;53.73
55517;BME280;41724;51.176;-0.708;2023-04-29T01:28:07;101348.49;;;14.68;53.87
55517;BME280;41724;51.176;-0.708;2023-04-29T01:30:45;101349.74;;;14.56;54.53
55517;BME280;41724;51.176;-0.708;2023-04-29T01:33:26;101349.87;;;14.71;54.87
55517;BME280;41724;51.176;-0.708;2023-04-29T01:36:08;101346.09;;;14.33;55.38
55517;BME280;41724;51.176;-0.708;2023-04-29T01:38:43;101343.54;;;14.17;55.13
55517;BME280;41724;51.176;-0.708;2023-04-29T01:41:14;101345.67;;;14.12;54.88
55517;BME280;41724;51.176;-0.708;2023-04-29T01:43:42;101346.15;;;14.17;55.60
55517;BME280;41724;51.176;-0.708;2023-04-29T01:46:15;101347.63;;;13.89;55.19
55517;BME280;41724;51.176;-0.708;2023-04-29T01:48:43;101350.02;;;13.97;55.22
55517;BME280;41724;51.176;-0.708;2023-04-29T01:51:10;101353.76;;;14.22;55.38
55517;BME280;41724;51.176;-0.708;2023-04-29T01:53:37;101353.67;;;14.09;55.26
55517;BME280;41724;51.176;-0.708;2023-04-29T01:56:05;101350.16;;;14.00;55.13
55517;BME280;41724;51.176;-0.708;2023-04-29T01:58:32;101354.85;;;13.92;55.33
55517;BME280;41724;51.176;-0.708;2023-04-29T02:00:59;101358.78;;;13.85;55.72
55517;BME280;41724;51.176;-0.708;2023-04-29T02:03:27;101358.83;;;13.37;55.68
55517;BME280;41724;51.176;-0.708;2023-04-29T02:05:55;101361.92;;;13.53;55.67
55517;BME280;41724;51.176;-0.708;2023-04-29T02:08:22;101365.40;;;13.50;55.64
55517;BME280;41724;51.176;-0.708;2023-04-29T02:10:53;101368.45;;;13.51;55.59
55517;BME280;41724;51.176;-0.708;2023-04-29T02:13:20;101370.89;;;13.36;55.84
55517;BME280;41724;51.176;-0.708;2023-04-29T02:15:47;101371.66;;;13.10;55.84
55517;BME280;41724;51.176;-0.708;2023-04-29T02:18:15;101369.16;;;12.99;56.36
55517;BME280;41724;51.176;-0.708;2023-04-29T02:20:43;101369.98;;;13.38;56.24
55517;BME280;41724;51.176;-0.708;2023-04-29T02:23:10;101370.90;;;12.87;56.52
55517;BME280;41724;51.176;-0.708;2023-04-29T02:25:37;101374.19;;;13.04;55.94
55517;BME280;41724;51.176;-0.708;2023-04-29T02:28:05;101374.40;;;12.80;56.08
55517;BME280;41724;51.176;-0.708;2023-04-29T02:30:32;101378.89;;;12.87;56.44
55517;BME280;41724;51.176;-0.708;2023-04-29T02:32:59;101373.94;;;12.70;56.36
55517;BME280;41724;51.176;-0.708;2023-04-29T02:35:27;101374.34;;;12.56;57.25
55517;BME280;41724;51.176;-0.708;2023-04-29T02:37:53;101379.17;;;12.86;57.19
55517;BME280;41724;51.176;-0.708;2023-04-29T02:40:20;101379.19;;;12.33;57.70
55517;BME280;41724;51.176;-0.708;2023-04-29T02:42:47;101380.76;;;12.53;57.16
55517;BME280;41724;51.176;-0.708;2023-04-29T02:45:14;101386.55;;;12.29;56.72
55517;BME280;41724;51.176;-0.708;2023-04-29T02:47:42;101385.41;;;12.02;56.50
55517;BME280;41724;51.176;-0.708;2023-04-29T02:50:09;101385.76;;;12.44;56.22
55517;BME280;41724;51.176;-0.708;2023-04-29T02:52:37;101384.89;;;12.45;56.86
55517;BME280;41724;51.176;-0.708;2023-04-29T02:55:05;101385.67;;;12.29;56.61
55517;BME280;41724;51.176;-0.708;2023-04-29T02:57:32;101381.16;;;12.31;56.50
55517;BME280;41724;51.176;-0.708;2023-04-29T02:59:59;101379.07;;;12.29;56.16
55517;BME280;41724;51.176;-0.708;2023-04-29T03:02:26;101374.24;;;12.26;55.81
55517;BME280;41724;51.176;-0.708;2023-04-29T03:04:54;101375.50;;;12.41;55.91
55517;BME280;41724;51.176;-0.708;2023-04-29T03:07:21;101375.26;;;12.10;56.54
55517;BME280;41724;51.176;-0.708;2023-04-29T03:09:49;101376.48;;;12.05;56.21
55517;BME280;41724;51.176;-0.708;2023-04-29T03:12:16;101374.86;;;12.30;55.81
55517;BME280;41724;51.176;-0.708;2023-04-29T03:14:43;101376.65;;;11.92;56.07
55517;BME280;41724;51.176;-0.708;2023-04-29T03:17:10;101368.53;;;11.76;56.55
55517;BME280;41724;51.176;-0.708;2023-04-29T03:19:37;101375.81;;;11.89;56.18
55517;BME280;41724;51.176;-0.708;2023-04-29T03:22:05;101371.40;;;11.68;56.64
55517;BME280;41724;51.176;-0.708;2023-04-29T03:24:32;101374.79;;;11.74;56.52
55517;BME280;41724;51.176;-0.708;2023-04-29T03:27:00;101368.28;;;11.94;56.38
55517;BME280;41724;51.176;-0.708;2023-04-29T03:29:27;101374.24;;;11.85;56.28
55517;BME280;41724;51.176;-0.708;2023-04-29T03:31:55;101371.98;;;11.54;56.16
55517;BME280;41724;51.176;-0.708;2023-04-29T03:34:22;101375.99;;;11.74;56.26
55517;BME280;41724;51.176;-0.708;2023-04-29T03:36:50;101383.69;;;11.48;57.12
55517;BME280;41724;51.176;-0.708;2023-04-29T03:39:17;101387.05;;;11.53;56.71
55517;BME280;41724;51.176;-0.708;2023-04-29T03:41:46;101390.16;;;11.56;56.40
55517;BME280;41724;51.176;-0.708;2023-04-29T03:44:13;101392.75;;;11.54;56.14
55517;BME280;41724;51.176;-0.708;2023-04-29T03:46:40;101397.30;;;11.59;55.79
55517;BME280;41724;51.176;-0.708;2023-04-29T03:49:07;101404.47;;;11.49;55.72
55517;BME280;41724;51.176;-0.708;2023-04-29T03:51:35;101408.84;;;11.50;55.33
55517;BME280;41724;51.176;-0.708;2023-04-29T03:54:02;101408.22;;;11.31;55.30
55517;BME280;41724;51.176;-0.708;2023-04-29T03:56:29;101411.65;;;11.23;55.29
55517;BME280;41724;51.176;-0.708;2023-04-29T03:58:56;101411.97;;;11.17;55.62
55517;BME280;41724;51.176;-0.708;2023-04-29T04:01:23;101413.31;;;11.01;55.86
55517;BME280;41724;51.176;-0.708;2023-04-29T04:03:50;101416.91;;;11.00;55.46
55517;BME280;41724;51.176;-0.708;2023-04-29T04:06:17;101421.59;;;11.00;55.67
55517;BME280;41724;51.176;-0.708;2023-04-29T04:08:44;101419.35;;;10.95;55.18
55517;BME280;41724;51.176;-0.708;2023-04-29T04:11:11;101422.30;;;11.04;55.18
55517;BME280;41724;51.176;-0.708;2023-04-29T04:13:40;101423.39;;;10.91;55.10
55517;BME280;41724;51.176;-0.708;2023-04-29T04:16:07;101424.67;;;10.82;55.84
55517;BME280;41724;51.176;-0.708;2023-04-29T04:18:34;101429.87;;;10.75;55.49
55517;BME280;41724;51.176;-0.708;2023-04-29T04:21:05;101435.79;;;10.67;55.64
55517;BME280;41724;51.176;-0.708;2023-04-29T04:23:32;101435.03;;;10.51;55.23
55517;BME280;41724;51.176;-0.708;2023-04-29T04:25:58;101439.80;;;10.78;55.31
55517;BME280;41724;51.176;-0.708;2023-04-29T04:28:26;101440.54;;;10.79;55.42
55517;BME280;41724;51.176;-0.708;2023-04-29T04:30:53;101441.59;;;11.03;55.04
55517;BME280;41724;51.176;-0.708;2023-04-29T04:33:20;101440.14;;;11.04;55.08
55517;BME280;41724;51.176;-0.708;2023-04-29T04:35:47;101443.07;;;10.85;54.82
55517;BME280;41724;51.176;-0.708;2023-04-29T04:38:14;101445.45;;;10.71;55.29
55517;BME280;41724;51.176;-0.708;2023-04-29T04:40:43;101450.14;;;10.71;55.15
55517;BME280;41724;51.176;-0.708;2023-04-29T04:43:10;101454.96;;;10.71;54.97
55517;BME280;41724;51.176;-0.708;2023-04-29T04:45:38;101453.97;;;10.79;55.33
55517;BME280;41724;51.176;-0.708;2023-04-29T04:48:05;101454.38;;;10.60;55.15
55517;BME280;41724;51.176;-0.708;2023-04-29T04:50:33;101459.97;;;10.77;54.86
55517;BME280;41724;51.176;-0.708;2023-04-29T04:53:00;101464.54;;;10.44;55.41
55517;BME280;41724;51.176;-0.708;2023-04-29T04:55:30;101471.08;;;9.68;56.37
55517;BME280;41724;51.176;-0.708;2023-04-29T04:57:57;101478.97;;;10.12;56.09
55517;BME280;41724;51.176;-0.708;2023-04-29T05:00:25;101484.41;;;10.36;55.73
55517;BME280;41724;51.176;-0.708;2023-04-29T05:02:52;101485.66;;;10.65;55.46
55517;BME280;41724;51.176;-0.708;2023-04-29T05:05:19;101485.71;;;10.54;55.58
55517;BME280;41724;51.176;-0.708;2023-04-29T05:07:46;101485.63;;;10.73;55.16
55517;BME280;41724;51.176;-0.708;2023-04-29T05:10:13;101488.26;;;10.81;55.07
55517;BME280;41724;51.176;-0.708;2023-04-29T05:12:41;101491.61;;;10.33;55.38
55517;BME280;41724;51.176;-0.708;2023-04-29T05:15:08;101496.29;;;10.75;55.85
55517;BME280;41724;51.176;-0.708;2023-04-29T05:17:35;101497.97;;;10.77;55.65
55517;BME280;41724;51.176;-0.708;2023-04-29T05:20:02;101508.34;;;10.23;55.71
55517;BME280;41724;51.176;-0.708;2023-04-29T05:22:29;101511.66;;;10.48;55.88
55517;BME280;41724;51.176;-0.708;2023-04-29T05:24:56;101514.90;;;10.76;55.83
55517;BME280;41724;51.176;-0.708;2023-04-29T05:27:23;101513.62;;;10.55;56.03
55517;BME280;41724;51.176;-0.708;2023-04-29T05:29:50;101514.95;;;10.83;56.24
55517;BME280;41724;51.176;-0.708;2023-04-29T05:32:18;101514.84;;;10.91;56.19
55517;BME280;41724;51.176;-0.708;2023-04-29T05:34:45;101512.27;;;11.04;56.24
55517;BME280;41724;51.176;-0.708;2023-04-29T05:37:12;101513.14;;;11.08;56.60
55517;BME280;41724;51.176;-0.708;2023-04-29T05:39:39;101513.75;;;10.81;56.61
55517;BME280;41724;51.176;-0.708;2023-04-29T05:42:07;101515.07;;;10.94;56.71
55517;BME280;41724;51.176;-0.708;2023-04-29T05:44:34;101512.53;;;11.01;56.90
55517;BME280;41724;51.176;-0.708;2023-04-29T05:47:02;101512.26;;;11.32;56.50
55517;BME280;41724;51.176;-0.708;2023-04-29T05:49:29;101519.39;;;11.48;56.48
55517;BME280;41724;51.176;-0.708;2023-04-29T05:51:56;101520.23;;;11.59;56.66
55517;BME280;41724;51.176;-0.708;2023-04-29T05:54:23;101519.88;;;11.41;56.70
55517;BME280;41724;51.176;-0.708;2023-04-29T05:56:50;101522.61;;;11.48;56.98
55517;BME280;41724;51.176;-0.708;2023-04-29T05:59:18;101525.86;;;11.63;56.83
55517;BME280;41724;51.176;-0.708;2023-04-29T06:01:45;101526.87;;;11.72;57.07
55517;BME280;41724;51.176;-0.708;2023-04-29T06:04:12;101527.37;;;11.68;57.31
55517;BME280;41724;51.176;-0.708;2023-04-29T06:06:40;101526.22;;;11.68;57.67
55517;BME280;41724;51.176;-0.708;2023-04-29T06:09:06;101525.99;;;11.81;57.60
55517;BME280;41724;51.176;-0.708;2023-04-29T06:11:33;101526.83;;;11.86;58.36
55517;BME280;41724;51.176;-0.708;2023-04-29T06:14:00;101528.26;;;12.02;58.48
55517;BME280;41724;51.176;-0.708;2023-04-29T06:16:27;101525.91;;;12.32;58.06
55517;BME280;41724;51.176;-0.708;2023-04-29T06:18:55;101528.97;;;11.92;58.59
55517;BME280;41724;51.176;-0.708;2023-04-29T06:21:21;101532.82;;;12.40;58.62
55517;BME280;41724;51.176;-0.708;2023-04-29T06:23:49;101536.58;;;12.40;59.06
55517;BME280;41724;51.176;-0.708;2023-04-29T06:26:16;101536.20;;;12.45;58.25
55517;BME280;41724;51.176;-0.708;2023-04-29T06:28:44;101541.47;;;12.69;58.75
55517;BME280;41724;51.176;-0.708;2023-04-29T06:31:12;101544.74;;;13.00;59.05
55517;BME280;41724;51.176;-0.708;2023-04-29T06:33:39;101545.06;;;13.43;58.24
55517;BME280;41724;51.176;-0.708;2023-04-29T06:36:07;101547.10;;;13.64;58.70
55517;BME280;41724;51.176;-0.708;2023-04-29T06:38:34;101546.01;;;13.35;57.72
55517;BME280;41724;51.176;-0.708;2023-04-29T06:41:01;101550.69;;;13.70;57.09
55517;BME280;41724;51.176;-0.708;2023-04-29T06:43:28;101553.94;;;13.75;57.40
55517;BME280;41724;51.176;-0.708;2023-04-29T06:45:55;101554.10;;;13.84;57.32
55517;BME280;41724;51.176;-0.708;2023-04-29T06:48:23;101553.69;;;14.03;56.82
55517;BME280;41724;51.176;-0.708;2023-04-29T06:50:50;101552.25;;;14.04;57.26
55517;BME280;41724;51.176;-0.708;2023-04-29T06:53:17;101552.94;;;14.33;57.15
55517;BME280;41724;51.176;-0.708;2023-04-29T06:55:44;101556.84;;;14.16;56.39
55517;BME280;41724;51.176;-0.708;2023-04-29T06:58:11;101560.46;;;13.99;57.27
55517;BME280;41724;51.176;-0.708;2023-04-29T07:00:39;101558.90;;;14.41;56.79
55517;BME280;41724;51.176;-0.708;2023-04-29T07:03:06;101560.66;;;14.71;56.31
55517;BME280;41724;51.176;-0.708;2023-04-29T07:05:33;101561.81;;;14.64;56.22
55517;BME280;41724;51.176;-0.708;2023-04-29T07:08:00;101562.04;;;14.77;55.54
55517;BME280;41724;51.176;-0.708;2023-04-29T07:10:27;101560.36;;;14.67;54.99
55517;BME280;41724;51.176;-0.708;2023-04-29T07:12:55;101559.74;;;15.16;54.48
55517;BME280;41724;51.176;-0.708;2023-04-29T07:15:22;101557.62;;;14.62;54.96
55517;BME280;41724;51.176;-0.708;2023-04-29T07:17:49;101557.75;;;14.61;54.57
55517;BME280;41724;51.176;-0.708;2023-04-29T07:20:16;101557.97;;;14.76;54.62
55517;BME280;41724;51.176;-0.708;2023-04-29T07:22:43;101560.69;;;15.22;54.27
55517;BME280;41724;51.176;-0.708;2023-04-29T07:25:11;101562.22;;;14.90;55.97
55517;BME280;41724;51.176;-0.708;2023-04-29T07:27:38;101567.14;;;15.44;54.69
55517;BME280;41724;51.176;-0.708;2023-04-29T07:30:06;101570.95;;;15.33;53.67
55517;BME280;41724;51.176;-0.708;2023-04-29T07:32:33;101572.36;;;15.20;53.30
55517;BME280;41724;51.176;-0.708;2023-04-29T07:35:01;101572.06;;;15.28;52.52
55517;BME280;41724;51.176;-0.708;2023-04-29T07:37:28;101575.92;;;14.60;55.68
55517;BME280;41724;51.176;-0.708;2023-04-29T07:39:56;101578.25;;;14.74;53.53
55517;BME280;41724;51.176;-0.708;2023-04-29T07:42:24;101578.87;;;15.21;53.68
55517;BME280;41724;51.176;-0.708;2023-04-29T07:44:52;101578.06;;;15.53;54.45
55517;BME280;41724;51.176;-0.708;2023-04-29T07:47:19;101582.61;;;15.33;55.56
55517;BME280;41724;51.176;-0.708;2023-04-29T07:49:46;101586.01;;;15.54;54.18
55517;BME280;41724;51.176;-0.708;2023-04-29T07:52:14;101589.37;;;15.94;53.74
55517;BME280;41724;51.176;-0.708;2023-04-29T07:54:42;101590.11;;;15.76;53.65
55517;BME280;41724;51.176;-0.708;2023-04-29T07:57:09;101587.96;;;15.94;53.29
55517;BME280;41724;51.176;-0.708;2023-04-29T07:59:36;101586.26;;;15.52;51.90
55517;BME280;41724;51.176;-0.708;2023-04-29T08:02:04;101584.53;;;15.60;52.31
55517;BME280;41724;51.176;-0.708;2023-04-29T08:04:31;101580.90;;;16.00;51.16
55517;BME280;41724;51.176;-0.708;2023-04-29T08:06:57;101580.31;;;15.81;51.77
55517;BME280;41724;51.176;-0.708;2023-04-29T08:09:24;101582.37;;;15.78;53.53
55517;BME280;41724;51.176;-0.708;2023-04-29T08:11:51;101579.06;;;15.71;51.42
55517;BME280;41724;51.176;-0.708;2023-04-29T08:14:18;101580.73;;;15.94;52.61
55517;BME280;41724;51.176;-0.708;2023-04-29T08:16:46;101584.72;;;16.03;53.00
55517;BME280;41724;51.176;-0.708;2023-04-29T08:19:13;101589.14;;;16.13;52.30
55517;BME280;41724;51.176;-0.708;2023-04-29T08:21:40;101591.81;;;16.10;52.15
55517;BME280;41724;51.176;-0.708;2023-04-29T08:24:07;101593.97;;;16.36;51.44
55517;BME280;41724;51.176;-0.708;2023-04-29T08:26:34;101596.66;;;16.29;51.63
55517;BME280;41724;51.176;-0.708;2023-04-29T08:29:01;101597.38;;;16.80;50.02
55517;BME280;41724;51.176;-0.708;2023-04-29T08:31:28;101597.08;;;16.47;50.29
55517;BME280;41724;51.176;-0.708;2023-04-29T08:33:55;101600.99;;;16.46;50.60
55517;BME280;41724;51.176;-0.708;2023-04-29T08:36:23;101599.47;;;16.49;49.27
55517;BME280;41724;51.176;-0.708;2023-04-29T08:38:50;101601.87;;;16.71;49.30
55517;BME280;41724;51.176;-0.708;2023-04-29T08:41:17;101603.04;;;16.48;47.94
55517;BME280;41724;51.176;-0.708;2023-04-29T08:43:44;101604.37;;;16.54;49.76
55517;BME280;41724;51.176;-0.708;2023-04-29T08:46:11;101607.53;;;16.39;49.06
55517;BME280;41724;51.176;-0.708;2023-04-29T08:48:39;101606.68;;;16.08;47.41
55517;BME280;41724;51.176;-0.708;2023-04-29T08:51:07;101613.06;;;16.60;49.31
55517;BME280;41724;51.176;-0.708;2023-04-29T08:53:35;101614.02;;;16.59;48.63
55517;BME280;41724;51.176;-0.708;2023-04-29T08:56:07;101617.75;;;16.54;48.89
55517;BME280;41724;51.176;-0.708;2023-04-29T08:58:35;101617.61;;;16.49;49.45
55517;BME280;41724;51.176;-0.708;2023-04-29T09:01:08;101618.51;;;16.47;51.39
55517;BME280;41724;51.176;-0.708;2023-04-29T09:03:41;101619.71;;;16.84;50.24
55517;BME280;41724;51.176;-0.708;2023-04-29T09:06:10;101618.07;;;16.49;51.50
55517;BME280;41724;51.176;-0.708;2023-04-29T09:08:39;101621.03;;;16.36;51.64
55517;BME280;41724;51.176;-0.708;2023-04-29T09:11:08;101621.21;;;16.85;49.93
55517;BME280;41724;51.176;-0.708;2023-04-29T09:13:35;101631.36;;;16.57;50.91
55517;BME280;41724;51.176;-0.708;2023-04-29T09:16:02;101631.26;;;16.91;49.23
55517;BME280;41724;51.176;-0.708;2023-04-29T09:18:46;101630.89;;;16.95;49.28
55517;BME280;41724;51.176;-0.708;2023-04-29T09:21:15;101626.32;;;16.96;49.16
55517;BME280;41724;51.176;-0.708;2023-04-29T09:23:42;101627.39;;;16.05;48.80
55517;BME280;41724;51.176;-0.708;2023-04-29T09:26:09;101630.86;;;16.23;48.56
55517;BME280;41724;51.176;-0.708;2023-04-29T09:28:37;101626.43;;;16.73;47.46
55517;BME280;41724;51.176;-0.708;2023-04-29T09:31:05;101627.42;;;16.71;47.07
55517;BME280;41724;51.176;-0.708;2023-04-29T09:33:55;101627.75;;;16.33;47.24
55517;BME280;41724;51.176;-0.708;2023-04-29T09:36:41;101627.92;;;16.06;49.12
55517;BME280;41724;51.176;-0.708;2023-04-29T09:39:10;101628.06;;;17.16;48.66
55517;BME280;41724;51.176;-0.708;2023-04-29T09:41:39;101630.17;;;16.94;49.94
55517;BME280;41724;51.176;-0.708;2023-04-29T09:44:08;101626.76;;;16.97;50.75
55517;BME280;41724;51.176;-0.708;2023-04-29T09:46:35;101626.81;;;16.96;48.03
55517;BME280;41724;51.176;-0.708;2023-04-29T09:49:04;101624.11;;;17.04;47.53
55517;BME280;41724;51.176;-0.708;2023-04-29T09:51:54;101625.57;;;17.20;48.45
55517;BME280;41724;51.176;-0.708;2023-04-29T09:54:22;101629.73;;;17.41;46.69
55517;BME280;41724;51.176;-0.708;2023-04-29T09:56:51;101626.49;;;17.03;47.75
55517;BME280;41724;51.176;-0.708;2023-04-29T09:59:18;101627.99;;;17.14;49.68
55517;BME280;41724;51.176;-0.708;2023-04-29T10:01:48;101628.63;;;17.50;50.96
55517;BME280;41724;51.176;-0.708;2023-04-29T10:04:16;101629.68;;;17.45;51.81
55517;BME280;41724;51.176;-0.708;2023-04-29T10:06:45;101633.26;;;17.55;50.90
55517;BME280;41724;51.176;-0.708;2023-04-29T10:09:15;101637.68;;;17.43;52.10
55517;BME280;41724;51.176;-0.708;2023-04-29T10:11:43;101637.07;;;17.96;51.17
55517;BME280;41724;51.176;-0.708;2023-04-29T10:14:12;101637.78;;;17.87;48.26
55517;BME280;41724;51.176;-0.708;2023-04-29T10:16:45;101633.22;;;17.98;49.13
55517;BME280;41724;51.176;-0.708;2023-04-29T10:19:14;101631.50;;;18.64;48.93
55517;BME280;41724;51.176;-0.708;2023-04-29T10:21:44;101633.59;;;18.46;46.33
55517;BME280;41724;51.176;-0.708;2023-04-29T10:24:17;101631.84;;;18.23;49.28
55517;BME280;41724;51.176;-0.708;2023-04-29T10:26:46;101634.59;;;17.88;48.89
55517;BME280;41724;51.176;-0.708;2023-04-29T10:29:13;101636.80;;;18.32;44.31
55517;BME280;41724;51.176;-0.708;2023-04-29T10:31:42;101639.37;;;18.62;45.18
55517;BME280;41724;51.176;-0.708;2023-04-29T10:34:10;101634.20;;;18.48;43.49
55517;BME280;41724;51.176;-0.708;2023-04-29T10:36:38;101637.36;;;18.63;42.27
55517;BME280;41724;51.176;-0.708;2023-04-29T10:39:11;101632.22;;;19.14;44.28
55517;BME280;41724;51.176;-0.708;2023-04-29T10:41:43;101627.69;;;18.82;47.00
55517;BME280;41724;51.176;-0.708;2023-04-29T10:44:11;101626.96;;;18.64;43.20
55517;BME280;41724;51.176;-0.708;2023-04-29T10:46:38;101624.73;;;18.92;46.31
55517;BME280;41724;51.176;-0.708;2023-04-29T10:49:06;101623.18;;;18.34;48.18
55517;BME280;41724;51.176;-0.708;2023-04-29T10:51:34;101626.01;;;18.08;47.44
55517;BME280;41724;51.176;-0.708;2023-04-29T10:54:07;101621.10;;;18.64;43.24
55517;BME280;41724;51.176;-0.708;2023-04-29T10:56:36;101617.50;;;19.15;45.60
55517;BME280;41724;51.176;-0.708;2023-04-29T10:59:03;101618.30;;;19.15;44.21
55517;BME280;41724;51.176;-0.708;2023-04-29T11:01:42;101619.90;;;19.29;47.78
55517;BME280;41724;51.176;-0.708;2023-04-29T11:04:10;101622.45;;;19.18;44.06
55517;BME280;41724;51.176;-0.708;2023-04-29T11:06:41;101617.50;;;19.66;42.48
55517;BME280;41724;51.176;-0.708;2023-04-29T11:09:11;101620.83;;;19.20;42.54
55517;BME280;41724;51.176;-0.708;2023-04-29T11:11:41;101615.92;;;19.64;41.25
55517;BME280;41724;51.176;-0.708;2023-04-29T11:14:10;101616.58;;;18.90;44.63
55517;BME280;41724;51.176;-0.708;2023-04-29T11:16:46;101612.88;;;19.28;44.14
55517;BME280;41724;51.176;-0.708;2023-04-29T11:19:14;101618.46;;;19.35;44.73
55517;BME280;41724;51.176;-0.708;2023-04-29T11:21:42;101618.30;;;20.24;41.76
55517;BME280;41724;51.176;-0.708;2023-04-29T11:24:10;101612.96;;;19.65;40.60
55517;BME280;41724;51.176;-0.708;2023-04-29T11:26:37;101612.60;;;20.30;39.98
55517;BME280;41724;51.176;-0.708;2023-04-29T11:29:04;101615.10;;;21.00;41.25
55517;BME280;41724;51.176;-0.708;2023-04-29T11:31:32;101616.15;;;20.79;40.84
55517;BME280;41724;51.176;-0.708;2023-04-29T11:33:59;101609.60;;;21.06;38.52
55517;BME280;41724;51.176;-0.708;2023-04-29T11:36:26;101609.89;;;20.96;40.44
55517;BME280;41724;51.176;-0.708;2023-04-29T11:38:53;101610.98;;;21.53;37.73
55517;BME280;41724;51.176;-0.708;2023-04-29T11:41:20;101605.66;;;21.37;36.19
55517;BME280;41724;51.176;-0.708;2023-04-29T11:43:54;101605.65;;;21.40;35.96
55517;BME280;41724;51.176;-0.708;2023-04-29T11:46:21;101605.70;;;21.34;39.47
55517;BME280;41724;51.176;-0.708;2023-04-29T11:48:49;101606.61;;;20.93;39.79
55517;BME280;41724;51.176;-0.708;2023-04-29T11:51:17;101605.61;;;21.15;38.63
55517;BME280;41724;51.176;-0.708;2023-04-29T11:53:45;101599.29;;;22.09;39.93
55517;BME280;41724;51.176;-0.708;2023-04-29T11:56:11;101596.16;;;22.26;37.52
55517;BME280;41724;51.176;-0.708;2023-04-29T11:58:40;101592.52;;;22.94;40.65
55517;BME280;41724;51.176;-0.708;2023-04-29T12:01:08;101588.46;;;23.13;37.26
55517;BME280;41724;51.176;-0.708;2023-04-29T12:03:35;101597.92;;;20.95;37.83
55517;BME280;41724;51.176;-0.708;2023-04-29T12:06:03;101597.03;;;21.13;39.37
55517;BME280;41724;51.176;-0.708;2023-04-29T12:08:30;101597.30;;;22.29;36.74
55517;BME280;41724;51.176;-0.708;2023-04-29T12:10:58;101590.99;;;22.87;37.05
55517;BME280;41724;51.176;-0.708;2023-04-29T12:13:27;101589.17;;;22.74;36.93
55517;BME280;41724;51.176;-0.708;2023-04-29T12:15:57;101588.11;;;21.55;37.03
55517;BME280;41724;51.176;-0.708;2023-04-29T12:18:25;101583.57;;;22.25;36.93
55517;BME280;41724;51.176;-0.708;2023-04-29T12:20:52;101586.09;;;21.78;37.12
55517;BME280;41724;51.176;-0.708;2023-04-29T12:23:22;101586.92;;;21.56;36.13
55517;BME280;41724;51.176;-0.708;2023-04-29T12:25:50;101584.26;;;22.11;37.93
55517;BME280;41724;51.176;-0.708;2023-04-29T12:28:18;101586.76;;;22.00;37.21
55517;BME280;41724;51.176;-0.708;2023-04-29T12:30:45;101587.84;;;21.44;37.85
55517;BME280;41724;51.176;-0.708;2023-04-29T12:33:18;101589.64;;;21.18;39.80
55517;BME280;41724;51.176;-0.708;2023-04-29T12:35:45;101590.48;;;21.56;36.58
55517;BME280;41724;51.176;-0.708;2023-04-29T12:38:15;101582.76;;;21.62;38.18
55517;BME280;41724;51.176;-0.708;2023-04-29T12:40:43;101585.35;;;20.90;36.21
55517;BME280;41724;51.176;-0.708;2023-04-29T12:43:11;101589.35;;;20.79;37.12
55517;BME280;41724;51.176;-0.708;2023-04-29T12:45:39;101582.37;;;23.16;34.93